Share

Monticello, AR

4:05 AM CDT on April 25, 2014 (GMT -0500)
Hwy 172 (KARMONTI2) Elev 246 ft | 33.55 °N, 91.82 °W | Change Station

Current weather conditions updated 2 minutes ago

Clear
Clear
52.5 °F
Feels Like 52.5 °F
N
0.0
Wind Variable Wind from WSW
Gusts 1.0 mph
Sunrise 6:24 AM
Sunset 7:45 PM
Moon Waning Crescent

Today is forecast to be Cooler than yesterday.

Pressure 29.89 in
Visibility 10.0 miles
Clouds Clear
Dew Point 44 °F
Humidity 72%
Rainfall 0.00 in
Snow Depth Not available.
UV 0 out of 16
Pollen 9.30 out of 12
Air Quality Not available.
Flu Activity Sporadic
METAR KLLQ 250853Z AUTO 29006KT 10SM CLR 14/10 A2990 RMK AO2 RAE32 SLP122 P0000 60000 T01390100 53010

More Conditions Fewer Conditions

Pressure 29.89 in
Visibility 10.0 miles
Clouds Clear
Dew Point 44 °F
Humidity 72%
Rainfall 0.00 in
Snow Depth Not available.
UV 0 out of 16
Pollen 9.30 out of 12
Air Quality Not available.
Flu Activity Sporadic
METAR KLLQ 250853Z AUTO 29006KT 10SM CLR 14/10 A2990 RMK AO2 RAE32 SLP122 P0000 60000 T01390100 53010

More Conditions Fewer Conditions

10-Day Weather Forecast

Almanac

Astronomy

Apr. 25, 2014 Rise Set
Actual Time 6:24 AM CDT 7:45 PM CDT
Civil Twilight 5:58 AM CDT 8:12 PM CDT
Nautical Twilight 5:27 AM CDT 8:43 PM CDT
Astronomical Twilight 4:55 AM CDT 9:15 PM CDT
Moon 4:01 AM CDT 4:18 PM CDT
Length of Visible Light 14h 13m
Length of Day
13h 20m
Tomorrow will be 1m 51s longer.
Waning Crescent, 18% of the Moon is Illuminated
Today
Waning Crescent
Apr 29
New
May 6
First Quarter
May 14
Full
May 21
Last Quarter

Today's Extremes

State Highs State Lows

Community

  • Storm Clouds & Sunset
    Storm Clouds & Sunset
  • Deer in evening light
    Deer in evening light
  • Critter
    Critter
  • Jone Runs Falls
    Jone Runs Falls
  • Easter in Shenandoah National Park
    Easter in Shenandoah National Park

WunderPhotos

Upload Photos

1,704,874 photos uploaded!

WunderBlogs® & News

Nearby

Snow Depth

Station Depth Elevation
No new snow has been reported.

Coastal Water Temperatures

Place Temperature
No Stations Reporting

Earthquake Activity

City Distance Mag. Time & Date
No recent earthquake activity has been reported nearby.
Minimum magnitude displayed is 2.5.

Nearby Weather Stations

Station Location Temp. Dew Point Humidity Wind Precip. Elev Updated Type
RAWS UAM AR, Monticello, AR 56 °F 54 °F 93% North  at  0 mph 0.00 in / hr 183 ft 3:00 AM CDT MADIS
Hwy 172, Monticello, AR 52.5 °F 44 °F 72% WSW  at  0.0 mph 0.00 in / hr 246 ft 4:03 AM CDT Normal
MesoWest WNCSTR , Winchester, AR 59 °F - - North  at  - 0.00 in / hr 162 ft 1:40 AM CDT MADIS
MesoWest DERMOT , Dermott, AR 59 °F - - North  at  - 0.00 in / hr 143 ft 3:10 AM CDT MADIS

Show More Stations Show Fewer Stations

What do you think?

We're not finished. Please let us know what you like, what you don't like, and what you are still missing.